createdAt,value
2017-07-15T00:00:02.329Z,0
2017-07-15T00:01:02.349Z,0
2017-07-15T00:02:02.382Z,0
2017-07-15T00:03:02.708Z,0
2017-07-15T00:04:02.440Z,0
2017-07-15T00:05:02.789Z,0
2017-07-15T00:06:02.818Z,0
2017-07-15T00:07:02.851Z,0
2017-07-15T00:08:02.487Z,0
2017-07-15T00:09:02.574Z,0
2017-07-15T00:10:02.929Z,0
2017-07-15T00:11:02.650Z,0
2017-07-15T00:12:02.997Z,0
2017-07-15T00:13:03.283Z,0
2017-07-15T00:14:03.045Z,0
2017-07-15T00:15:02.752Z,0
2017-07-15T00:16:02.786Z,0
2017-07-15T00:17:02.808Z,0
2017-07-15T00:18:03.416Z,0
2017-07-15T00:19:02.852Z,0
2017-07-15T00:20:03.213Z,0
2017-07-15T00:21:02.943Z,0
2017-07-15T00:22:03.274Z,0
2017-07-15T00:23:03.603Z,0
2017-07-15T00:24:03.020Z,0
2017-07-15T00:25:03.059Z,0
2017-07-15T00:26:03.082Z,0
2017-07-15T00:27:03.399Z,0
2017-07-15T00:28:03.066Z,0
2017-07-15T00:29:03.159Z,0
2017-07-15T00:30:02.901Z,0
2017-07-15T00:31:03.530Z,0
2017-07-15T00:32:03.239Z,0
2017-07-15T00:33:03.209Z,0
2017-07-15T00:34:03.620Z,0
2017-07-15T00:35:02.686Z,0
2017-07-15T00:36:03.354Z,0
2017-07-15T00:37:03.374Z,0
2017-07-15T00:38:03.663Z,0
2017-07-15T00:39:03.761Z,0
2017-07-15T00:40:02.830Z,0
2017-07-15T00:41:03.502Z,0
2017-07-15T00:42:03.200Z,0
2017-07-15T00:43:03.795Z,0
2017-07-15T00:44:03.265Z,0
2017-07-15T00:45:03.296Z,0
2017-07-15T00:46:03.637Z,0
2017-07-15T00:47:03.347Z,0
2017-07-15T00:48:04.288Z,0
2017-07-15T00:49:03.396Z,0
2017-07-15T00:50:03.428Z,0
2017-07-15T00:51:04.102Z,0
2017-07-15T00:52:03.486Z,0
2017-07-15T00:53:03.771Z,0
2017-07-15T00:54:03.884Z,0
2017-07-15T00:55:03.904Z,0
2017-07-15T00:56:04.246Z,0
2017-07-15T00:57:03.946Z,0
2017-07-15T00:58:04.275Z,0
2017-07-15T00:59:04.324Z,0
2017-07-15T01:00:03.715Z,0
2017-07-15T01:01:04.061Z,0
2017-07-15T01:02:03.777Z,0
2017-07-15T01:03:04.119Z,0
2017-07-15T01:04:04.152Z,0
2017-07-15T01:05:04.500Z,0
2017-07-15T01:06:04.225Z,0
2017-07-15T01:07:03.918Z,0
2017-07-15T01:08:04.591Z,0
2017-07-15T01:09:03.983Z,0
2017-07-15T01:10:04.320Z,0
2017-07-15T01:11:04.349Z,0
2017-07-15T01:12:04.372Z,0
2017-07-15T01:13:04.410Z,0
2017-07-15T01:14:04.759Z,0
2017-07-15T01:15:04.463Z,0
2017-07-15T01:16:04.178Z,0
2017-07-15T01:17:04.513Z,0
2017-07-15T01:18:04.543Z,0
2017-07-15T01:19:04.899Z,0
2017-07-15T01:20:04.927Z,0
2017-07-15T01:21:04.629Z,0
2017-07-15T01:22:04.350Z,0
2017-07-15T01:23:04.690Z,0
2017-07-15T01:24:05.011Z,0
2017-07-15T01:25:05.070Z,0
2017-07-15T01:26:04.444Z,0
2017-07-15T01:27:04.798Z,0
2017-07-15T01:28:04.502Z,0
2017-07-15T01:29:05.432Z,0
2017-07-15T01:30:04.899Z,0
2017-07-15T01:31:04.916Z,0
2017-07-15T01:32:05.264Z,0
2017-07-15T01:33:04.977Z,0
2017-07-15T01:34:04.933Z,0
2017-07-15T01:35:04.707Z,0
2017-07-15T01:36:05.068Z,0
2017-07-15T01:37:05.089Z,0
2017-07-15T01:38:05.438Z,0
2017-07-15T01:39:04.758Z,0
2017-07-15T01:40:05.496Z,0
2017-07-15T01:41:05.204Z,0
2017-07-15T01:42:05.548Z,0
2017-07-15T01:43:05.250Z,0
2017-07-15T01:44:05.582Z,0
2017-07-15T01:45:04.670Z,0
2017-07-15T01:46:05.336Z,0
2017-07-15T01:47:05.365Z,0
2017-07-15T01:48:05.081Z,0
2017-07-15T01:49:05.406Z,0
2017-07-15T01:50:05.763Z,0
2017-07-15T01:51:05.479Z,0
2017-07-15T01:52:05.188Z,0
2017-07-15T01:53:05.542Z,0
2017-07-15T01:54:05.501Z,0
2017-07-15T01:55:05.914Z,0
2017-07-15T01:56:05.619Z,0
2017-07-15T01:57:05.656Z,0
2017-07-15T01:58:05.372Z,0
2017-07-15T01:59:06.001Z,0
2017-07-15T02:00:05.733Z,0
2017-07-15T02:01:06.094Z,0
2017-07-15T02:02:05.483Z,0
2017-07-15T02:03:06.144Z,0
2017-07-15T02:04:06.109Z,0
2017-07-15T02:05:05.239Z,0
2017-07-15T02:06:05.902Z,0
2017-07-15T02:07:06.253Z,0
2017-07-15T02:08:05.963Z,0
2017-07-15T02:09:06.244Z,0
2017-07-15T02:10:06.022Z,0
2017-07-15T02:11:06.057Z,0
2017-07-15T02:12:06.083Z,0
2017-07-15T02:13:06.108Z,0
2017-07-15T02:14:06.701Z,0
2017-07-15T02:15:06.474Z,0
2017-07-15T02:16:06.185Z,0
2017-07-15T02:17:06.551Z,0
2017-07-15T02:18:06.568Z,0
2017-07-15T02:19:06.248Z,0
2017-07-15T02:20:06.629Z,0
2017-07-15T02:21:06.650Z,0
2017-07-15T02:22:06.355Z,0
2017-07-15T02:23:06.064Z,0
2017-07-15T02:24:06.988Z,0
2017-07-15T02:25:06.138Z,0
2017-07-15T02:26:06.481Z,0
2017-07-15T02:27:06.508Z,0
2017-07-15T02:28:06.840Z,0
2017-07-15T02:29:06.862Z,0
2017-07-15T02:30:06.578Z,0
2017-07-15T02:31:06.938Z,0
2017-07-15T02:32:06.008Z,0
2017-07-15T02:33:06.994Z,0
2017-07-15T02:34:06.630Z,0
2017-07-15T02:35:06.414Z,0
2017-07-15T02:36:06.760Z,0
2017-07-15T02:37:06.464Z,0
2017-07-15T02:38:06.814Z,0
2017-07-15T02:39:07.459Z,0
2017-07-15T02:40:06.547Z,0
2017-07-15T02:41:06.895Z,0
2017-07-15T02:42:07.244Z,0
2017-07-15T02:43:06.948Z,0
2017-07-15T02:44:07.609Z,0
2017-07-15T02:45:07.011Z,0
2017-07-15T02:46:06.723Z,0
2017-07-15T02:47:07.408Z,0
2017-07-15T02:48:07.102Z,0
2017-07-15T02:49:07.384Z,0
2017-07-15T02:50:07.144Z,0
2017-07-15T02:51:07.184Z,0
2017-07-15T02:52:07.520Z,0
2017-07-15T02:53:07.241Z,0
2017-07-15T02:54:07.571Z,0
2017-07-15T02:55:07.608Z,0
2017-07-15T02:56:07.641Z,0
2017-07-15T02:57:07.328Z,0
2017-07-15T02:58:07.689Z,0
2017-07-15T02:59:07.334Z,0
2017-07-15T03:00:07.117Z,0
2017-07-15T03:01:07.782Z,0
2017-07-15T03:02:07.504Z,0
2017-07-15T03:03:07.518Z,0
2017-07-15T03:04:07.843Z,0
2017-07-15T03:05:07.580Z,0
2017-07-15T03:06:07.925Z,0
2017-07-15T03:07:07.637Z,0
2017-07-15T03:08:07.656Z,0
2017-07-15T03:09:08.302Z,0
2017-07-15T03:10:08.036Z,0
2017-07-15T03:11:07.429Z,0
2017-07-15T03:12:07.782Z,0
2017-07-15T03:13:08.142Z,0
2017-07-15T03:14:08.075Z,0
2017-07-15T03:15:07.864Z,0
2017-07-15T03:16:08.200Z,0
2017-07-15T03:17:08.225Z,0
2017-07-15T03:18:08.258Z,4
2017-07-15T03:19:07.900Z,4
2017-07-15T03:20:07.684Z,4
2017-07-15T03:21:08.033Z,0
2017-07-15T03:22:07.741Z,4
2017-07-15T03:23:08.405Z,4
2017-07-15T03:24:08.411Z,4
2017-07-15T03:25:07.828Z,8
2017-07-15T03:26:08.177Z,8
2017-07-15T03:27:08.197Z,8
2017-07-15T03:28:07.898Z,12
2017-07-15T03:29:08.551Z,8
2017-07-15T03:30:07.964Z,8
2017-07-15T03:31:08.302Z,12
2017-07-15T03:32:08.018Z,16
2017-07-15T03:33:08.044Z,16
2017-07-15T03:34:08.315Z,20
2017-07-15T03:35:08.108Z,24
2017-07-15T03:36:08.125Z,24
2017-07-15T03:37:08.486Z,28
2017-07-15T03:38:08.506Z,32
2017-07-15T03:39:09.147Z,36
2017-07-15T03:40:08.589Z,40
2017-07-15T03:41:08.905Z,48
2017-07-15T03:42:08.613Z,48
2017-07-15T03:43:08.650Z,52
2017-07-15T03:44:09.242Z,56
2017-07-15T03:45:08.703Z,64
2017-07-15T03:46:08.728Z,64
2017-07-15T03:47:08.762Z,68
2017-07-15T03:48:08.782Z,76
2017-07-15T03:49:09.434Z,84
2017-07-15T03:50:09.172Z,92
2017-07-15T03:51:08.873Z,100
2017-07-15T03:52:08.917Z,108
2017-07-15T03:53:08.927Z,116
2017-07-15T03:54:08.959Z,128
2017-07-15T03:55:08.984Z,132
2017-07-15T03:56:08.694Z,136
2017-07-15T03:57:08.731Z,144
2017-07-15T03:58:09.067Z,156
2017-07-15T03:59:09.103Z,164
2017-07-15T04:00:08.805Z,176
2017-07-15T04:01:09.461Z,188
2017-07-15T04:02:09.175Z,200
2017-07-15T04:03:09.210Z,208
2017-07-15T04:04:09.248Z,208
2017-07-15T04:05:09.265Z,212
2017-07-15T04:06:09.297Z,212
2017-07-15T04:07:09.642Z,212
2017-07-15T04:08:09.351Z,212
2017-07-15T04:09:09.380Z,212
2017-07-15T04:10:09.409Z,212
2017-07-15T04:11:09.437Z,208
2017-07-15T04:12:09.456Z,204
2017-07-15T04:13:09.807Z,204
2017-07-15T04:14:09.837Z,200
2017-07-15T04:15:09.548Z,196
2017-07-15T04:16:09.885Z,200
2017-07-15T04:17:09.602Z,212
2017-07-15T04:18:09.619Z,232
2017-07-15T04:19:09.656Z,252
2017-07-15T04:20:09.053Z,256
2017-07-15T04:21:10.041Z,264
2017-07-15T04:22:09.418Z,276
2017-07-15T04:23:09.780Z,296
2017-07-15T04:24:09.836Z,300
2017-07-15T04:25:10.157Z,308
2017-07-15T04:26:09.550Z,316
2017-07-15T04:27:09.883Z,316
2017-07-15T04:28:10.243Z,320
2017-07-15T04:29:09.613Z,328
2017-07-15T04:30:10.533Z,328
2017-07-15T04:31:10.004Z,332
2017-07-15T04:32:10.021Z,340
2017-07-15T04:33:10.067Z,344
2017-07-15T04:34:10.396Z,344
2017-07-15T04:35:10.674Z,336
2017-07-15T04:36:10.131Z,332
2017-07-15T04:37:09.844Z,328
2017-07-15T04:38:10.515Z,328
2017-07-15T04:39:10.542Z,328
2017-07-15T04:40:10.182Z,332
2017-07-15T04:41:10.276Z,336
2017-07-15T04:42:10.628Z,340
2017-07-15T04:43:10.008Z,348
2017-07-15T04:44:10.047Z,356
2017-07-15T04:45:10.331Z,360
2017-07-15T04:46:10.732Z,360
2017-07-15T04:47:10.440Z,360
2017-07-15T04:48:10.789Z,372
2017-07-15T04:49:10.821Z,388
2017-07-15T04:50:10.502Z,396
2017-07-15T04:51:10.559Z,416
2017-07-15T04:52:09.956Z,432
2017-07-15T04:53:10.616Z,456
2017-07-15T04:54:10.955Z,472
2017-07-15T04:55:11.239Z,500
2017-07-15T04:56:10.698Z,512
2017-07-15T04:57:10.417Z,516
2017-07-15T04:58:10.754Z,532
2017-07-15T04:59:11.102Z,552
2017-07-15T05:00:11.068Z,572
2017-07-15T05:01:10.876Z,576
2017-07-15T05:02:10.553Z,560
2017-07-15T05:03:10.261Z,564
2017-07-15T05:04:10.291Z,576
2017-07-15T05:05:10.933Z,584
2017-07-15T05:06:10.667Z,576
2017-07-15T05:07:10.692Z,576
2017-07-15T05:08:11.042Z,580
2017-07-15T05:09:11.370Z,584
2017-07-15T05:10:11.703Z,588
2017-07-15T05:11:10.795Z,596
2017-07-15T05:12:11.468Z,624
2017-07-15T05:13:11.509Z,640
2017-07-15T05:14:11.198Z,640
2017-07-15T05:15:11.806Z,656
2017-07-15T05:16:11.576Z,664
2017-07-15T05:17:10.968Z,692
2017-07-15T05:18:11.650Z,712
2017-07-15T05:19:11.031Z,740
2017-07-15T05:20:11.675Z,776
2017-07-15T05:21:11.079Z,808
2017-07-15T05:22:11.433Z,816
2017-07-15T05:23:11.455Z,836
2017-07-15T05:24:11.486Z,860
2017-07-15T05:25:12.086Z,904
2017-07-15T05:26:11.544Z,936
2017-07-15T05:27:11.589Z,980
2017-07-15T05:28:11.625Z,1008
2017-07-15T05:29:11.620Z,1008
2017-07-15T05:30:11.950Z,1008
2017-07-15T05:31:11.047Z,1020
2017-07-15T05:32:11.393Z,1048
2017-07-15T05:33:11.426Z,1048
2017-07-15T05:34:11.771Z,1052
2017-07-15T05:35:11.767Z,1060
2017-07-15T05:36:12.152Z,1084
2017-07-15T05:37:12.176Z,1124
2017-07-15T05:38:11.885Z,1140
2017-07-15T05:39:11.903Z,1088
2017-07-15T05:40:11.547Z,972
2017-07-15T05:41:12.292Z,920
2017-07-15T05:42:11.677Z,928
2017-07-15T05:43:12.021Z,952
2017-07-15T05:44:12.367Z,992
2017-07-15T05:45:12.066Z,1004
2017-07-15T05:46:11.468Z,1008
2017-07-15T05:47:12.137Z,1012
2017-07-15T05:48:11.847Z,1004
2017-07-15T05:49:11.871Z,988
2017-07-15T05:50:12.150Z,1000
2017-07-15T05:51:12.261Z,1032
2017-07-15T05:52:12.603Z,1048
2017-07-15T05:53:12.302Z,1064
2017-07-15T05:54:12.018Z,1080
2017-07-15T05:55:12.611Z,1100
2017-07-15T05:56:12.393Z,1128
2017-07-15T05:57:12.749Z,1152
2017-07-15T05:58:11.806Z,1176
2017-07-15T05:59:12.491Z,1196
2017-07-15T06:00:12.183Z,1236
2017-07-15T06:01:12.540Z,1300
2017-07-15T06:02:12.259Z,1364
2017-07-15T06:03:12.270Z,1428
2017-07-15T06:04:12.616Z,1464
2017-07-15T06:05:12.643Z,1468
2017-07-15T06:06:12.985Z,1456
2017-07-15T06:07:12.386Z,1444
2017-07-15T06:08:12.719Z,1436
2017-07-15T06:09:12.752Z,1396
2017-07-15T06:10:12.781Z,1368
2017-07-15T06:11:13.125Z,1364
2017-07-15T06:12:12.850Z,1368
2017-07-15T06:13:12.551Z,1376
2017-07-15T06:14:12.891Z,1336
2017-07-15T06:15:12.924Z,1288
2017-07-15T06:16:12.963Z,1244
2017-07-15T06:17:12.666Z,1200
2017-07-15T06:18:13.010Z,1204
2017-07-15T06:19:13.034Z,1256
2017-07-15T06:20:13.076Z,1320
2017-07-15T06:21:13.093Z,1416
2017-07-15T06:22:12.483Z,1464
2017-07-15T06:23:12.831Z,1444
2017-07-15T06:24:13.164Z,1404
2017-07-15T06:25:12.889Z,1356
2017-07-15T06:26:13.543Z,1360
2017-07-15T06:27:13.262Z,1336
2017-07-15T06:28:13.287Z,1288
2017-07-15T06:29:13.628Z,1216
2017-07-15T06:30:13.664Z,1224
2017-07-15T06:31:13.686Z,1192
2017-07-15T06:32:13.407Z,1196
2017-07-15T06:33:13.432Z,1220
2017-07-15T06:34:13.464Z,1216
2017-07-15T06:35:13.501Z,1196
2017-07-15T06:36:14.143Z,1196
2017-07-15T06:37:13.870Z,1272
2017-07-15T06:38:13.252Z,1300
2017-07-15T06:39:13.608Z,1328
2017-07-15T06:40:13.307Z,1372
2017-07-15T06:41:13.585Z,1400
2017-07-15T06:42:13.403Z,1468
2017-07-15T06:43:14.036Z,1488
2017-07-15T06:44:13.737Z,1524
2017-07-15T06:45:13.769Z,1560
2017-07-15T06:46:13.727Z,1556
2017-07-15T06:47:13.823Z,1536
2017-07-15T06:48:13.531Z,1468
2017-07-15T06:49:14.199Z,1440
2017-07-15T06:50:13.917Z,1348
2017-07-15T06:51:14.506Z,1252
2017-07-15T06:52:13.962Z,1168
2017-07-15T06:53:14.022Z,1196
2017-07-15T06:54:13.699Z,1304
2017-07-15T06:55:14.056Z,1388
2017-07-15T06:56:14.320Z,1408
2017-07-15T06:57:14.114Z,1480
2017-07-15T06:58:13.804Z,1484
2017-07-15T06:59:14.475Z,1456
2017-07-15T07:00:13.873Z,1412
2017-07-15T07:01:14.145Z,1508
2017-07-15T07:02:14.250Z,1500
2017-07-15T07:03:14.590Z,1536
2017-07-15T07:04:14.631Z,1504
2017-07-15T07:05:14.332Z,1392
2017-07-15T07:06:14.617Z,1296
2017-07-15T07:07:14.393Z,1280
2017-07-15T07:08:14.434Z,1312
2017-07-15T07:09:14.454Z,1312
2017-07-15T07:10:14.156Z,1368
2017-07-15T07:11:15.162Z,1460
2017-07-15T07:12:14.218Z,1616
2017-07-15T07:13:14.566Z,1848
2017-07-15T07:14:14.271Z,2084
2017-07-15T07:15:14.292Z,2332
2017-07-15T07:16:14.942Z,2236
2017-07-15T07:17:14.354Z,2040
2017-07-15T07:18:14.703Z,1900
2017-07-15T07:19:14.407Z,1884
2017-07-15T07:20:14.760Z,1900
2017-07-15T07:21:14.725Z,1796
2017-07-15T07:22:14.486Z,1592
2017-07-15T07:23:14.842Z,1428
2017-07-15T07:24:14.883Z,1420
2017-07-15T07:25:14.584Z,1436
2017-07-15T07:26:15.182Z,1460
2017-07-15T07:27:14.637Z,1508
2017-07-15T07:28:15.311Z,1560
2017-07-15T07:29:15.016Z,1708
2017-07-15T07:30:15.041Z,1784
2017-07-15T07:31:15.009Z,1792
2017-07-15T07:32:15.414Z,1776
2017-07-15T07:33:15.132Z,1908
2017-07-15T07:34:15.160Z,2148
2017-07-15T07:35:15.516Z,2436
2017-07-15T07:36:15.145Z,2680
2017-07-15T07:37:14.922Z,2856
2017-07-15T07:38:14.954Z,2976
2017-07-15T07:39:15.307Z,3020
2017-07-15T07:40:15.005Z,3080
2017-07-15T07:41:15.605Z,3152
2017-07-15T07:42:15.382Z,3136
2017-07-15T07:43:15.734Z,3088
2017-07-15T07:44:15.455Z,3116
2017-07-15T07:45:15.160Z,3176
2017-07-15T07:46:15.753Z,3236
2017-07-15T07:47:15.206Z,3176
2017-07-15T07:48:15.561Z,3152
2017-07-15T07:49:15.271Z,3212
2017-07-15T07:50:15.931Z,3220
2017-07-15T07:51:15.882Z,3152
2017-07-15T07:52:15.670Z,2996
2017-07-15T07:53:16.039Z,2848
2017-07-15T07:54:15.733Z,2720
2017-07-15T07:55:16.077Z,2572
2017-07-15T07:56:15.715Z,2548
2017-07-15T07:57:16.135Z,2484
2017-07-15T07:58:16.203Z,2396
2017-07-15T07:59:15.864Z,2348
2017-07-15T08:00:15.915Z,2096
2017-07-15T08:01:16.216Z,2088
2017-07-15T08:02:15.962Z,2268
2017-07-15T08:03:15.978Z,2352
2017-07-15T08:04:16.012Z,2432
2017-07-15T08:05:16.088Z,2400
2017-07-15T08:06:16.352Z,2756
2017-07-15T08:07:15.810Z,2964
2017-07-15T08:08:16.135Z,2888
2017-07-15T08:09:16.479Z,3192
2017-07-15T08:10:16.172Z,2912
2017-07-15T08:11:15.892Z,2472
2017-07-15T08:12:16.242Z,2256
2017-07-15T08:13:15.951Z,2036
2017-07-15T08:14:15.976Z,2068
2017-07-15T08:15:16.693Z,2180
2017-07-15T08:16:16.669Z,1876
2017-07-15T08:17:16.378Z,1660
2017-07-15T08:18:16.726Z,1644
2017-07-15T08:19:16.159Z,2136
2017-07-15T08:20:16.460Z,2480
2017-07-15T08:21:16.821Z,2648
2017-07-15T08:22:16.513Z,2660
2017-07-15T08:23:16.538Z,2672
2017-07-15T08:24:16.883Z,2664
2017-07-15T08:25:16.935Z,2744
2017-07-15T08:26:16.320Z,2352
2017-07-15T08:27:16.661Z,2436
2017-07-15T08:28:16.699Z,2284
2017-07-15T08:29:16.730Z,1864
2017-07-15T08:30:16.759Z,1620
2017-07-15T08:31:17.113Z,1992
2017-07-15T08:32:16.520Z,2384
2017-07-15T08:33:16.831Z,2748
2017-07-15T08:34:16.875Z,2868
2017-07-15T08:35:16.571Z,2776
2017-07-15T08:36:16.920Z,2560
2017-07-15T08:37:16.957Z,2176
2017-07-15T08:38:17.293Z,1904
2017-07-15T08:39:17.328Z,1936
2017-07-15T08:40:17.019Z,2260
2017-07-15T08:41:17.392Z,2432
2017-07-15T08:42:16.769Z,2768
2017-07-15T08:43:17.442Z,2948
2017-07-15T08:44:17.478Z,3704
2017-07-15T08:45:16.866Z,3792
2017-07-15T08:46:17.523Z,3764
2017-07-15T08:47:17.560Z,3532
2017-07-15T08:48:17.274Z,3776
2017-07-15T08:49:17.006Z,3940
2017-07-15T08:50:17.360Z,3608
2017-07-15T08:51:17.360Z,3268
2017-07-15T08:52:16.737Z,3568
2017-07-15T08:53:17.729Z,3336
2017-07-15T08:54:17.438Z,3512
2017-07-15T08:55:17.471Z,3504
2017-07-15T08:56:17.824Z,3452
2017-07-15T08:57:17.840Z,3200
2017-07-15T08:58:17.865Z,2772
2017-07-15T08:59:17.584Z,2756
2017-07-15T09:00:17.610Z,2768
2017-07-15T09:01:17.625Z,2820
2017-07-15T09:02:17.912Z,2988
2017-07-15T09:03:18.012Z,3112
2017-07-15T09:04:18.038Z,3284
2017-07-15T09:05:17.754Z,3320
2017-07-15T09:06:17.779Z,3504
2017-07-15T09:07:17.745Z,3320
2017-07-15T09:08:17.836Z,3028
2017-07-15T09:09:18.181Z,3412
2017-07-15T09:10:18.216Z,3424
2017-07-15T09:11:18.244Z,3640
2017-07-15T09:12:18.204Z,3288
2017-07-15T09:13:17.969Z,3508
2017-07-15T09:14:18.019Z,4192
2017-07-15T09:15:17.727Z,3856
2017-07-15T09:16:18.068Z,3716
2017-07-15T09:17:18.351Z,3268
2017-07-15T09:18:18.125Z,2684
2017-07-15T09:19:18.171Z,2728
2017-07-15T09:20:18.499Z,2900
2017-07-15T09:21:18.213Z,2732
2017-07-15T09:22:18.497Z,2944
2017-07-15T09:23:18.261Z,3076
2017-07-15T09:24:17.970Z,3056
2017-07-15T09:25:18.648Z,3252
2017-07-15T09:26:18.683Z,3404
2017-07-15T09:27:18.645Z,3984
2017-07-15T09:28:18.414Z,3356
2017-07-15T09:29:18.775Z,4500
2017-07-15T09:30:18.795Z,4732
2017-07-15T09:31:18.823Z,4304
2017-07-15T09:32:18.810Z,4512
2017-07-15T09:33:18.873Z,3648
2017-07-15T09:34:18.270Z,3784
2017-07-15T09:35:17.978Z,3388
2017-07-15T09:36:18.972Z,3180
2017-07-15T09:37:19.286Z,3464
2017-07-15T09:38:19.038Z,3624
2017-07-15T09:39:18.726Z,3508
2017-07-15T09:40:19.079Z,3420
2017-07-15T09:41:19.104Z,3204
2017-07-15T09:42:19.404Z,3128
2017-07-15T09:43:18.853Z,3052
2017-07-15T09:44:18.878Z,3252
2017-07-15T09:45:18.584Z,3604
2017-07-15T09:46:19.252Z,3996
2017-07-15T09:47:19.212Z,4172
2017-07-15T09:48:18.674Z,4060
2017-07-15T09:49:18.698Z,3968
2017-07-15T09:50:18.740Z,3856
2017-07-15T09:51:19.076Z,4100
2017-07-15T09:52:19.353Z,4332
2017-07-15T09:53:19.132Z,4424
2017-07-15T09:54:18.834Z,4452
2017-07-15T09:55:19.187Z,4472
2017-07-15T09:56:19.221Z,4652
2017-07-15T09:57:19.197Z,4440
2017-07-15T09:58:19.594Z,4496
2017-07-15T09:59:19.654Z,4596
2017-07-15T10:00:19.656Z,4468
2017-07-15T10:01:19.674Z,4084
2017-07-15T10:02:19.971Z,3996
2017-07-15T10:03:19.454Z,4316
2017-07-15T10:04:19.459Z,4604
2017-07-15T10:05:19.825Z,4580
2017-07-15T10:06:19.503Z,4620
2017-07-15T10:07:20.120Z,4480
2017-07-15T10:08:19.562Z,4532
2017-07-15T10:09:19.271Z,5008
2017-07-15T10:10:19.315Z,5180
2017-07-15T10:11:19.660Z,5052
2017-07-15T10:12:20.259Z,5324
2017-07-15T10:13:19.718Z,4800
2017-07-15T10:14:19.745Z,4844
2017-07-15T10:15:19.767Z,4384
2017-07-15T10:16:20.132Z,4128
2017-07-15T10:17:19.762Z,4520
2017-07-15T10:18:20.241Z,4460
2017-07-15T10:19:19.254Z,4420
2017-07-15T10:20:19.916Z,4788
2017-07-15T10:21:19.950Z,4748
2017-07-15T10:22:20.528Z,4840
2017-07-15T10:23:19.996Z,4856
2017-07-15T10:24:20.334Z,4472
2017-07-15T10:25:20.067Z,4740
2017-07-15T10:26:19.781Z,4728
2017-07-15T10:27:20.364Z,4540
2017-07-15T10:28:19.837Z,4440
2017-07-15T10:29:20.510Z,4260
2017-07-15T10:30:19.895Z,4640
2017-07-15T10:31:19.920Z,4492
2017-07-15T10:32:20.513Z,5180
2017-07-15T10:33:19.658Z,4820
2017-07-15T10:34:20.004Z,4412
2017-07-15T10:35:20.042Z,4092
2017-07-15T10:36:20.376Z,3692
2017-07-15T10:37:21.094Z,3092
2017-07-15T10:38:20.426Z,3452
2017-07-15T10:39:20.802Z,3720
2017-07-15T10:40:20.825Z,3892
2017-07-15T10:41:20.600Z,4136
2017-07-15T10:42:20.859Z,4260
2017-07-15T10:43:20.585Z,3572
2017-07-15T10:44:20.929Z,3648
2017-07-15T10:45:20.646Z,3508
2017-07-15T10:46:20.998Z,3180
2017-07-15T10:47:21.316Z,3272
2017-07-15T10:48:20.101Z,3164
2017-07-15T10:49:20.757Z,3496
2017-07-15T10:50:21.106Z,3776
2017-07-15T10:51:20.811Z,4372
2017-07-15T10:52:21.120Z,4252
2017-07-15T10:53:21.188Z,4308
2017-07-15T10:54:20.580Z,3924
2017-07-15T10:55:21.257Z,4028
2017-07-15T10:56:20.643Z,4544
2017-07-15T10:57:21.660Z,4048
2017-07-15T10:58:20.700Z,3968
2017-07-15T10:59:21.381Z,3884
2017-07-15T11:00:21.100Z,2884
2017-07-15T11:01:21.102Z,2464
2017-07-15T11:02:21.396Z,3168
2017-07-15T11:03:20.855Z,3044
2017-07-15T11:04:21.511Z,2760
2017-07-15T11:05:21.249Z,2796
2017-07-15T11:06:21.254Z,2792
2017-07-15T11:07:21.210Z,3256
2017-07-15T11:08:21.304Z,3424
2017-07-15T11:09:21.009Z,4180
2017-07-15T11:10:22.267Z,4516
2017-07-15T11:11:20.918Z,4580
2017-07-15T11:12:21.359Z,4548
2017-07-15T11:13:21.796Z,4760
2017-07-15T11:14:21.190Z,4680
2017-07-15T11:15:21.515Z,4176
2017-07-15T11:16:21.574Z,4704
2017-07-15T11:17:21.511Z,4720
2017-07-15T11:18:21.284Z,3900
2017-07-15T11:19:21.953Z,3308
2017-07-15T11:20:21.971Z,2968
2017-07-15T11:21:21.702Z,2644
2017-07-15T11:22:21.988Z,4348
2017-07-15T11:23:22.063Z,4524
2017-07-15T11:24:21.138Z,4624
2017-07-15T11:25:21.808Z,4356
2017-07-15T11:26:21.512Z,3564
2017-07-15T11:27:22.132Z,5872
2017-07-15T11:28:22.203Z,6268
2017-07-15T11:29:22.238Z,7352
2017-07-15T11:30:21.925Z,7804
2017-07-15T11:31:22.273Z,7964
2017-07-15T11:32:22.550Z,7900
2017-07-15T11:33:22.359Z,8788
2017-07-15T11:34:22.073Z,8784
2017-07-15T11:35:21.779Z,9052
2017-07-15T11:36:22.444Z,10000
2017-07-15T11:37:22.158Z,9840
2017-07-15T11:38:21.857Z,7620
2017-07-15T11:39:22.538Z,5600
2017-07-15T11:40:22.251Z,6568
2017-07-15T11:41:22.576Z,6220
2017-07-15T11:42:21.974Z,11012
2017-07-15T11:43:22.586Z,13532
2017-07-15T11:44:22.674Z,7048
2017-07-15T11:45:22.387Z,7932
2017-07-15T11:46:22.748Z,24224
2017-07-15T11:47:22.449Z,23840
2017-07-15T11:48:22.722Z,25792
2017-07-15T11:49:22.827Z,24288
2017-07-15T11:50:21.933Z,35936
2017-07-15T11:51:21.929Z,11736
2017-07-15T11:52:22.589Z,9368
2017-07-15T11:53:23.205Z,7312
2017-07-15T11:54:22.995Z,6400
2017-07-15T11:55:22.999Z,6056
2017-07-15T11:56:22.716Z,5380
2017-07-15T11:57:22.735Z,6040
2017-07-15T11:58:23.026Z,14520
2017-07-15T11:59:22.798Z,43968
2017-07-15T12:00:23.160Z,48832
2017-07-15T12:01:22.549Z,38848
2017-07-15T12:02:23.209Z,34016
2017-07-15T12:03:22.902Z,17664
2017-07-15T12:04:22.639Z,35168
2017-07-15T12:05:23.304Z,37312
2017-07-15T12:06:23.340Z,35936
2017-07-15T12:07:22.726Z,38560
2017-07-15T12:08:23.379Z,8364
2017-07-15T12:09:22.783Z,6824
2017-07-15T12:10:22.812Z,6184
2017-07-15T12:11:23.208Z,6200
2017-07-15T12:12:23.514Z,6116
2017-07-15T12:13:23.166Z,32064
2017-07-15T12:14:23.252Z,35840
2017-07-15T12:15:23.583Z,8052
2017-07-15T12:16:23.311Z,21600
2017-07-15T12:17:23.027Z,8580
2017-07-15T12:18:23.618Z,9044
2017-07-15T12:19:23.090Z,27552
2017-07-15T12:20:23.112Z,33856
2017-07-15T12:21:23.464Z,39744
2017-07-15T12:22:23.493Z,35520
2017-07-15T12:23:23.822Z,35552
2017-07-15T12:24:23.868Z,6884
2017-07-15T12:25:23.594Z,5332
2017-07-15T12:26:23.362Z,4996
2017-07-15T12:27:23.333Z,4964
2017-07-15T12:28:24.254Z,5448
2017-07-15T12:29:24.013Z,5628
2017-07-15T12:30:24.059Z,5836
2017-07-15T12:31:24.088Z,6720
2017-07-15T12:32:23.804Z,11204
2017-07-15T12:33:24.500Z,54560
2017-07-15T12:34:24.188Z,56992
2017-07-15T12:35:23.888Z,54400
2017-07-15T12:36:23.925Z,62592
2017-07-15T12:37:23.973Z,60960
2017-07-15T12:38:24.556Z,57824
2017-07-15T12:39:24.323Z,52704
2017-07-15T12:40:24.048Z,50240
2017-07-15T12:41:24.072Z,48928
2017-07-15T12:42:24.126Z,61696
2017-07-15T12:43:24.455Z,61248
2017-07-15T12:44:24.179Z,62016
2017-07-15T12:45:23.876Z,11840
2017-07-15T12:46:23.907Z,9796
2017-07-15T12:47:23.945Z,39456
2017-07-15T12:48:24.551Z,35552
2017-07-15T12:49:24.331Z,66112
2017-07-15T12:50:24.676Z,63392
2017-07-15T12:51:24.715Z,67360
2017-07-15T12:52:24.101Z,65120
2017-07-15T12:53:24.695Z,62784
2017-07-15T12:54:24.900Z,22656
2017-07-15T12:55:24.517Z,11816
2017-07-15T12:56:24.545Z,59648
2017-07-15T12:57:24.582Z,57856
2017-07-15T12:58:25.196Z,52896
2017-07-15T12:59:24.968Z,56352
2017-07-15T13:00:24.685Z,64032
2017-07-15T13:01:24.394Z,67136
2017-07-15T13:02:24.770Z,66368
2017-07-15T13:03:25.352Z,64320
2017-07-15T13:04:24.816Z,66368
2017-07-15T13:05:24.517Z,66176
2017-07-15T13:06:24.561Z,67968
2017-07-15T13:07:25.007Z,67072
2017-07-15T13:08:25.244Z,63648
2017-07-15T13:09:25.289Z,63936
2017-07-15T13:10:25.317Z,65536
2017-07-15T13:11:25.350Z,66368
2017-07-15T13:12:25.377Z,65856
2017-07-15T13:13:25.667Z,61760
2017-07-15T13:14:24.806Z,59680
2017-07-15T13:15:25.456Z,55584
2017-07-15T13:16:25.162Z,58528
2017-07-15T13:17:25.536Z,60928
2017-07-15T13:18:25.492Z,31936
2017-07-15T13:19:25.273Z,7908
2017-07-15T13:20:25.634Z,8300
2017-07-15T13:21:25.663Z,11040
2017-07-15T13:22:25.392Z,12364
2017-07-15T13:23:25.096Z,64864
2017-07-15T13:24:25.449Z,51776
2017-07-15T13:25:25.174Z,53600
2017-07-15T13:26:25.523Z,40928
2017-07-15T13:27:25.223Z,42784
2017-07-15T13:28:25.580Z,44992
2017-07-15T13:29:25.618Z,32544
2017-07-15T13:30:25.962Z,49312
2017-07-15T13:31:25.664Z,36864
2017-07-15T13:32:26.030Z,36096
2017-07-15T13:33:25.746Z,28384
2017-07-15T13:34:26.018Z,34176
2017-07-15T13:35:25.487Z,21408
2017-07-15T13:36:25.565Z,17008
2017-07-15T13:37:25.872Z,11244
2017-07-15T13:38:25.922Z,7592
2017-07-15T13:39:26.194Z,7144
2017-07-15T13:40:25.959Z,7268
2017-07-15T13:41:25.999Z,10024